sensor_id;sensor_type;location;lat;lon;timestamp;temperature;humidity
31677;DHT22;18385;51.572;6.578;2023-12-14T00:01:33;12.20;73.50
31677;DHT22;18385;51.572;6.578;2023-12-14T00:03:59;12.20;73.60
31677;DHT22;18385;51.572;6.578;2023-12-14T00:06:25;12.20;73.60
31677;DHT22;18385;51.572;6.578;2023-12-14T00:08:50;12.20;73.60
31677;DHT22;18385;51.572;6.578;2023-12-14T00:11:16;12.20;73.50
31677;DHT22;18385;51.572;6.578;2023-12-14T00:13:42;12.10;73.40
31677;DHT22;18385;51.572;6.578;2023-12-14T00:16:08;12.10;73.50
31677;DHT22;18385;51.572;6.578;2023-12-14T00:18:34;12.10;73.60
31677;DHT22;18385;51.572;6.578;2023-12-14T00:21:00;12.10;73.50
31677;DHT22;18385;51.572;6.578;2023-12-14T00:23:26;12.10;73.50
31677;DHT22;18385;51.572;6.578;2023-12-14T00:25:51;12.00;73.60
31677;DHT22;18385;51.572;6.578;2023-12-14T00:28:17;12.00;73.60
31677;DHT22;18385;51.572;6.578;2023-12-14T00:30:43;12.00;73.50
31677;DHT22;18385;51.572;6.578;2023-12-14T00:33:08;12.00;73.50
31677;DHT22;18385;51.572;6.578;2023-12-14T00:35:34;12.00;73.70
31677;DHT22;18385;51.572;6.578;2023-12-14T00:38:00;11.90;73.60
31677;DHT22;18385;51.572;6.578;2023-12-14T00:40:25;11.90;73.50
31677;DHT22;18385;51.572;6.578;2023-12-14T00:42:51;11.80;73.60
31677;DHT22;18385;51.572;6.578;2023-12-14T00:45:17;11.70;73.60
31677;DHT22;18385;51.572;6.578;2023-12-14T00:47:43;11.70;73.70
31677;DHT22;18385;51.572;6.578;2023-12-14T00:50:09;11.70;73.70
31677;DHT22;18385;51.572;6.578;2023-12-14T00:52:34;11.60;73.70
31677;DHT22;18385;51.572;6.578;2023-12-14T00:55:00;11.50;73.70
31677;DHT22;18385;51.572;6.578;2023-12-14T00:57:26;11.50;73.60
31677;DHT22;18385;51.572;6.578;2023-12-14T00:59:52;11.40;73.80
31677;DHT22;18385;51.572;6.578;2023-12-14T01:02:17;11.40;74.00
31677;DHT22;18385;51.572;6.578;2023-12-14T01:04:43;11.30;73.90
31677;DHT22;18385;51.572;6.578;2023-12-14T01:07:09;11.30;73.90
31677;DHT22;18385;51.572;6.578;2023-12-14T01:09:35;11.30;74.00
31677;DHT22;18385;51.572;6.578;2023-12-14T01:12:01;11.20;73.90
31677;DHT22;18385;51.572;6.578;2023-12-14T01:14:26;11.20;74.00
31677;DHT22;18385;51.572;6.578;2023-12-14T01:16:52;11.30;74.10
31677;DHT22;18385;51.572;6.578;2023-12-14T01:19:18;11.30;74.00
31677;DHT22;18385;51.572;6.578;2023-12-14T01:21:44;11.30;74.00
31677;DHT22;18385;51.572;6.578;2023-12-14T01:24:10;11.30;73.90
31677;DHT22;18385;51.572;6.578;2023-12-14T01:26:36;11.30;73.90
31677;DHT22;18385;51.572;6.578;2023-12-14T01:29:02;11.30;73.90
31677;DHT22;18385;51.572;6.578;2023-12-14T01:31:27;11.20;73.90
31677;DHT22;18385;51.572;6.578;2023-12-14T01:33:53;11.30;73.80
31677;DHT22;18385;51.572;6.578;2023-12-14T01:36:26;11.20;73.80
31677;DHT22;18385;51.572;6.578;2023-12-14T01:38:52;11.20;73.80
31677;DHT22;18385;51.572;6.578;2023-12-14T01:41:18;11.10;73.90
31677;DHT22;18385;51.572;6.578;2023-12-14T01:43:44;11.10;73.90
31677;DHT22;18385;51.572;6.578;2023-12-14T01:46:10;11.10;74.00
31677;DHT22;18385;51.572;6.578;2023-12-14T01:48:36;11.00;73.90
31677;DHT22;18385;51.572;6.578;2023-12-14T01:51:02;10.90;73.90
31677;DHT22;18385;51.572;6.578;2023-12-14T01:53:28;10.90;74.00
31677;DHT22;18385;51.572;6.578;2023-12-14T01:55:53;10.90;74.10
31677;DHT22;18385;51.572;6.578;2023-12-14T01:58:20;10.90;74.10
31677;DHT22;18385;51.572;6.578;2023-12-14T02:01:36;10.90;74.10
31677;DHT22;18385;51.572;6.578;2023-12-14T02:03:45;10.90;74.00
31677;DHT22;18385;51.572;6.578;2023-12-14T02:06:11;10.90;74.00
31677;DHT22;18385;51.572;6.578;2023-12-14T02:08:37;10.90;74.10
31677;DHT22;18385;51.572;6.578;2023-12-14T02:11:03;10.90;74.10
31677;DHT22;18385;51.572;6.578;2023-12-14T02:13:29;10.90;73.90
31677;DHT22;18385;51.572;6.578;2023-12-14T02:15:54;10.90;74.00
31677;DHT22;18385;51.572;6.578;2023-12-14T02:18:20;10.90;74.70
31677;DHT22;18385;51.572;6.578;2023-12-14T02:20:46;10.90;73.80
31677;DHT22;18385;51.572;6.578;2023-12-14T02:23:11;10.90;73.90
31677;DHT22;18385;51.572;6.578;2023-12-14T02:25:37;10.80;73.80
31677;DHT22;18385;51.572;6.578;2023-12-14T02:28:03;10.80;73.90
31677;DHT22;18385;51.572;6.578;2023-12-14T02:30:29;10.80;73.90
31677;DHT22;18385;51.572;6.578;2023-12-14T02:32:54;10.80;73.80
31677;DHT22;18385;51.572;6.578;2023-12-14T02:35:20;10.80;73.90
31677;DHT22;18385;51.572;6.578;2023-12-14T02:37:46;10.70;73.70
31677;DHT22;18385;51.572;6.578;2023-12-14T02:40:12;10.70;73.90
31677;DHT22;18385;51.572;6.578;2023-12-14T02:42:37;10.70;73.90
31677;DHT22;18385;51.572;6.578;2023-12-14T02:45:04;10.70;74.00
31677;DHT22;18385;51.572;6.578;2023-12-14T02:47:30;10.70;74.00
31677;DHT22;18385;51.572;6.578;2023-12-14T02:49:56;10.70;73.80
31677;DHT22;18385;51.572;6.578;2023-12-14T02:52:22;10.60;73.80
31677;DHT22;18385;51.572;6.578;2023-12-14T02:54:47;10.60;73.80
31677;DHT22;18385;51.572;6.578;2023-12-14T02:57:13;10.60;73.90
31677;DHT22;18385;51.572;6.578;2023-12-14T02:59:39;10.50;73.80
31677;DHT22;18385;51.572;6.578;2023-12-14T03:02:05;10.50;73.90
31677;DHT22;18385;51.572;6.578;2023-12-14T03:04:31;10.50;74.00
31677;DHT22;18385;51.572;6.578;2023-12-14T03:06:57;10.50;74.00
31677;DHT22;18385;51.572;6.578;2023-12-14T03:09:28;10.50;74.00
31677;DHT22;18385;51.572;6.578;2023-12-14T03:11:54;10.40;73.90
31677;DHT22;18385;51.572;6.578;2023-12-14T03:14:19;10.40;74.00
31677;DHT22;18385;51.572;6.578;2023-12-14T03:16:45;10.40;74.70
31677;DHT22;18385;51.572;6.578;2023-12-14T03:19:11;10.40;73.90
31677;DHT22;18385;51.572;6.578;2023-12-14T03:21:36;10.40;74.00
31677;DHT22;18385;51.572;6.578;2023-12-14T03:24:02;10.40;74.10
31677;DHT22;18385;51.572;6.578;2023-12-14T03:26:28;10.40;74.10
31677;DHT22;18385;51.572;6.578;2023-12-14T03:28:53;10.40;73.90
31677;DHT22;18385;51.572;6.578;2023-12-14T03:31:19;10.40;73.90
31677;DHT22;18385;51.572;6.578;2023-12-14T03:33:45;10.40;74.00
31677;DHT22;18385;51.572;6.578;2023-12-14T03:36:11;10.40;73.90
31677;DHT22;18385;51.572;6.578;2023-12-14T03:38:37;10.40;74.00
31677;DHT22;18385;51.572;6.578;2023-12-14T03:41:02;10.40;74.00
31677;DHT22;18385;51.572;6.578;2023-12-14T03:43:28;10.40;74.00
31677;DHT22;18385;51.572;6.578;2023-12-14T03:45:54;10.40;74.00
31677;DHT22;18385;51.572;6.578;2023-12-14T03:48:19;10.40;73.90
31677;DHT22;18385;51.572;6.578;2023-12-14T03:50:45;10.40;73.90
31677;DHT22;18385;51.572;6.578;2023-12-14T03:53:11;10.40;73.80
31677;DHT22;18385;51.572;6.578;2023-12-14T03:55:36;10.40;73.80
31677;DHT22;18385;51.572;6.578;2023-12-14T03:58:02;10.40;73.90
31677;DHT22;18385;51.572;6.578;2023-12-14T04:00:28;10.40;73.70
31677;DHT22;18385;51.572;6.578;2023-12-14T04:02:53;10.40;73.60
31677;DHT22;18385;51.572;6.578;2023-12-14T04:05:19;10.30;73.80
31677;DHT22;18385;51.572;6.578;2023-12-14T04:07:44;10.30;73.90
31677;DHT22;18385;51.572;6.578;2023-12-14T04:10:11;10.30;73.80
31677;DHT22;18385;51.572;6.578;2023-12-14T04:12:38;10.30;73.70
31677;DHT22;18385;51.572;6.578;2023-12-14T04:15:05;10.30;73.70
31677;DHT22;18385;51.572;6.578;2023-12-14T04:17:31;10.30;73.90
31677;DHT22;18385;51.572;6.578;2023-12-14T04:19:57;10.30;73.70
31677;DHT22;18385;51.572;6.578;2023-12-14T04:22:23;10.30;73.70
31677;DHT22;18385;51.572;6.578;2023-12-14T04:24:49;10.30;73.80
31677;DHT22;18385;51.572;6.578;2023-12-14T04:27:15;10.30;73.80
31677;DHT22;18385;51.572;6.578;2023-12-14T04:29:41;10.30;73.80
31677;DHT22;18385;51.572;6.578;2023-12-14T04:32:07;10.40;73.90
31677;DHT22;18385;51.572;6.578;2023-12-14T04:34:33;10.40;73.50
31677;DHT22;18385;51.572;6.578;2023-12-14T04:36:58;10.40;73.50
31677;DHT22;18385;51.572;6.578;2023-12-14T04:39:24;10.40;73.50
31677;DHT22;18385;51.572;6.578;2023-12-14T04:41:51;10.40;73.60
31677;DHT22;18385;51.572;6.578;2023-12-14T04:44:18;10.40;73.50
31677;DHT22;18385;51.572;6.578;2023-12-14T04:46:44;10.30;73.50
31677;DHT22;18385;51.572;6.578;2023-12-14T04:49:09;10.30;73.50
31677;DHT22;18385;51.572;6.578;2023-12-14T04:51:35;10.30;73.60
31677;DHT22;18385;51.572;6.578;2023-12-14T04:54:01;10.30;73.70
31677;DHT22;18385;51.572;6.578;2023-12-14T04:56:26;10.30;73.70
31677;DHT22;18385;51.572;6.578;2023-12-14T04:58:52;10.30;73.70
31677;DHT22;18385;51.572;6.578;2023-12-14T05:01:18;10.30;73.70
31677;DHT22;18385;51.572;6.578;2023-12-14T05:03:43;10.30;73.50
31677;DHT22;18385;51.572;6.578;2023-12-14T05:06:09;10.30;73.50
31677;DHT22;18385;51.572;6.578;2023-12-14T05:08:35;10.20;73.50
31677;DHT22;18385;51.572;6.578;2023-12-14T05:11:01;10.20;73.70
31677;DHT22;18385;51.572;6.578;2023-12-14T05:13:26;10.20;73.60
31677;DHT22;18385;51.572;6.578;2023-12-14T05:15:52;10.20;73.50
31677;DHT22;18385;51.572;6.578;2023-12-14T05:18:18;10.20;73.60
31677;DHT22;18385;51.572;6.578;2023-12-14T05:20:44;10.30;73.60
31677;DHT22;18385;51.572;6.578;2023-12-14T05:23:14;10.20;73.50
31677;DHT22;18385;51.572;6.578;2023-12-14T05:25:40;10.20;73.60
31677;DHT22;18385;51.572;6.578;2023-12-14T05:28:05;10.10;73.30
31677;DHT22;18385;51.572;6.578;2023-12-14T05:30:31;10.00;73.40
31677;DHT22;18385;51.572;6.578;2023-12-14T05:32:57;10.00;73.70
31677;DHT22;18385;51.572;6.578;2023-12-14T05:35:22;10.00;73.60
31677;DHT22;18385;51.572;6.578;2023-12-14T05:37:48;10.00;73.60
31677;DHT22;18385;51.572;6.578;2023-12-14T05:40:14;10.00;73.70
31677;DHT22;18385;51.572;6.578;2023-12-14T05:42:40;10.00;73.60
31677;DHT22;18385;51.572;6.578;2023-12-14T05:45:06;10.00;73.60
31677;DHT22;18385;51.572;6.578;2023-12-14T05:47:32;10.00;73.70
31677;DHT22;18385;51.572;6.578;2023-12-14T05:50:03;10.00;73.70
31677;DHT22;18385;51.572;6.578;2023-12-14T05:52:29;10.00;73.60
31677;DHT22;18385;51.572;6.578;2023-12-14T05:54:55;10.00;73.60
31677;DHT22;18385;51.572;6.578;2023-12-14T05:57:20;10.00;73.60
31677;DHT22;18385;51.572;6.578;2023-12-14T05:59:46;10.00;73.60
31677;DHT22;18385;51.572;6.578;2023-12-14T06:02:12;10.00;73.60
31677;DHT22;18385;51.572;6.578;2023-12-14T06:04:37;10.00;73.60
31677;DHT22;18385;51.572;6.578;2023-12-14T06:07:03;10.00;73.70
31677;DHT22;18385;51.572;6.578;2023-12-14T06:09:29;10.00;73.60
31677;DHT22;18385;51.572;6.578;2023-12-14T06:12:03;10.00;73.50
31677;DHT22;18385;51.572;6.578;2023-12-14T06:14:29;10.10;73.60
31677;DHT22;18385;51.572;6.578;2023-12-14T06:16:55;10.10;73.50
31677;DHT22;18385;51.572;6.578;2023-12-14T06:19:21;10.10;73.50
31677;DHT22;18385;51.572;6.578;2023-12-14T06:21:47;10.10;73.50
31677;DHT22;18385;51.572;6.578;2023-12-14T06:24:13;10.00;74.10
31677;DHT22;18385;51.572;6.578;2023-12-14T06:26:43;10.00;73.50
31677;DHT22;18385;51.572;6.578;2023-12-14T06:29:09;10.00;73.60
31677;DHT22;18385;51.572;6.578;2023-12-14T06:31:35;9.90;73.60
31677;DHT22;18385;51.572;6.578;2023-12-14T06:34:01;9.90;73.50
31677;DHT22;18385;51.572;6.578;2023-12-14T06:36:30;9.90;73.60
31677;DHT22;18385;51.572;6.578;2023-12-14T06:38:56;10.00;73.60
31677;DHT22;18385;51.572;6.578;2023-12-14T06:41:23;10.00;73.60
31677;DHT22;18385;51.572;6.578;2023-12-14T06:43:49;10.00;73.40
31677;DHT22;18385;51.572;6.578;2023-12-14T06:46:15;9.90;73.40
31677;DHT22;18385;51.572;6.578;2023-12-14T06:48:41;9.90;73.50
31677;DHT22;18385;51.572;6.578;2023-12-14T06:51:06;9.90;73.50
31677;DHT22;18385;51.572;6.578;2023-12-14T06:53:32;9.90;73.60
31677;DHT22;18385;51.572;6.578;2023-12-14T06:55:58;9.90;73.60
31677;DHT22;18385;51.572;6.578;2023-12-14T06:58:23;10.00;73.40
31677;DHT22;18385;51.572;6.578;2023-12-14T07:00:49;10.00;73.40
31677;DHT22;18385;51.572;6.578;2023-12-14T07:03:15;9.90;73.30
31677;DHT22;18385;51.572;6.578;2023-12-14T07:05:41;9.90;73.40
31677;DHT22;18385;51.572;6.578;2023-12-14T07:08:06;9.90;73.50
31677;DHT22;18385;51.572;6.578;2023-12-14T07:10:32;9.90;73.40
31677;DHT22;18385;51.572;6.578;2023-12-14T07:12:58;9.90;73.40
31677;DHT22;18385;51.572;6.578;2023-12-14T07:15:24;9.80;73.40
31677;DHT22;18385;51.572;6.578;2023-12-14T07:17:50;9.80;73.60
31677;DHT22;18385;51.572;6.578;2023-12-14T07:20:16;9.90;73.50
31677;DHT22;18385;51.572;6.578;2023-12-14T07:22:42;9.90;73.40
31677;DHT22;18385;51.572;6.578;2023-12-14T07:25:08;9.90;73.50
31677;DHT22;18385;51.572;6.578;2023-12-14T07:27:34;9.90;73.30
31677;DHT22;18385;51.572;6.578;2023-12-14T07:29:59;9.90;73.30
31677;DHT22;18385;51.572;6.578;2023-12-14T07:32:25;10.00;73.40
31677;DHT22;18385;51.572;6.578;2023-12-14T07:34:52;10.00;73.30
31677;DHT22;18385;51.572;6.578;2023-12-14T07:37:18;10.00;73.20
31677;DHT22;18385;51.572;6.578;2023-12-14T07:39:44;10.00;73.10
31677;DHT22;18385;51.572;6.578;2023-12-14T07:42:10;10.00;73.20
31677;DHT22;18385;51.572;6.578;2023-12-14T07:44:36;10.00;73.10
31677;DHT22;18385;51.572;6.578;2023-12-14T07:47:03;10.00;73.10
31677;DHT22;18385;51.572;6.578;2023-12-14T07:49:28;10.00;73.10
31677;DHT22;18385;51.572;6.578;2023-12-14T07:51:54;10.00;73.10
31677;DHT22;18385;51.572;6.578;2023-12-14T07:54:20;10.00;73.00
31677;DHT22;18385;51.572;6.578;2023-12-14T07:56:45;10.00;73.10
31677;DHT22;18385;51.572;6.578;2023-12-14T07:59:11;10.10;73.00
31677;DHT22;18385;51.572;6.578;2023-12-14T08:01:37;10.10;73.00
31677;DHT22;18385;51.572;6.578;2023-12-14T08:04:03;10.00;72.80
31677;DHT22;18385;51.572;6.578;2023-12-14T08:06:31;10.00;72.80
31677;DHT22;18385;51.572;6.578;2023-12-14T08:08:57;10.00;72.90
31677;DHT22;18385;51.572;6.578;2023-12-14T08:11:24;9.90;72.80
31677;DHT22;18385;51.572;6.578;2023-12-14T08:13:50;10.00;73.00
31677;DHT22;18385;51.572;6.578;2023-12-14T08:16:15;9.90;72.80
31677;DHT22;18385;51.572;6.578;2023-12-14T08:18:43;9.90;72.90
31677;DHT22;18385;51.572;6.578;2023-12-14T08:21:11;9.90;72.90
31677;DHT22;18385;51.572;6.578;2023-12-14T08:23:37;9.90;72.80
31677;DHT22;18385;51.572;6.578;2023-12-14T08:26:03;9.90;72.90
31677;DHT22;18385;51.572;6.578;2023-12-14T08:28:29;9.90;72.90
31677;DHT22;18385;51.572;6.578;2023-12-14T08:30:55;9.90;72.80
31677;DHT22;18385;51.572;6.578;2023-12-14T08:33:22;9.90;72.90
31677;DHT22;18385;51.572;6.578;2023-12-14T08:35:49;9.90;72.90
31677;DHT22;18385;51.572;6.578;2023-12-14T08:38:16;9.90;72.90
31677;DHT22;18385;51.572;6.578;2023-12-14T08:40:42;9.90;72.90
31677;DHT22;18385;51.572;6.578;2023-12-14T08:43:08;10.00;72.90
31677;DHT22;18385;51.572;6.578;2023-12-14T08:45:33;10.00;73.50
31677;DHT22;18385;51.572;6.578;2023-12-14T08:47:59;10.00;72.60
31677;DHT22;18385;51.572;6.578;2023-12-14T08:50:25;10.00;72.50
31677;DHT22;18385;51.572;6.578;2023-12-14T08:52:53;10.00;72.60
31677;DHT22;18385;51.572;6.578;2023-12-14T08:55:19;10.00;72.70
31677;DHT22;18385;51.572;6.578;2023-12-14T08:57:45;10.10;72.70
31677;DHT22;18385;51.572;6.578;2023-12-14T09:00:11;10.10;72.60
31677;DHT22;18385;51.572;6.578;2023-12-14T09:02:36;10.10;72.50
31677;DHT22;18385;51.572;6.578;2023-12-14T09:05:03;10.10;72.50
31677;DHT22;18385;51.572;6.578;2023-12-14T09:07:30;10.20;72.50
31677;DHT22;18385;51.572;6.578;2023-12-14T09:09:56;10.10;72.30
31677;DHT22;18385;51.572;6.578;2023-12-14T09:12:22;10.10;72.30
31677;DHT22;18385;51.572;6.578;2023-12-14T09:14:47;10.20;72.50
31677;DHT22;18385;51.572;6.578;2023-12-14T09:17:13;10.20;72.30
31677;DHT22;18385;51.572;6.578;2023-12-14T09:19:39;10.10;72.10
31677;DHT22;18385;51.572;6.578;2023-12-14T09:22:05;10.10;72.30
31677;DHT22;18385;51.572;6.578;2023-12-14T09:24:30;10.10;72.40
31677;DHT22;18385;51.572;6.578;2023-12-14T09:26:56;10.10;72.30
31677;DHT22;18385;51.572;6.578;2023-12-14T09:29:22;10.10;72.30
31677;DHT22;18385;51.572;6.578;2023-12-14T09:31:47;10.10;72.30
31677;DHT22;18385;51.572;6.578;2023-12-14T09:34:13;10.10;72.10
31677;DHT22;18385;51.572;6.578;2023-12-14T09:36:40;10.10;72.10
31677;DHT22;18385;51.572;6.578;2023-12-14T09:39:05;10.10;72.10
31677;DHT22;18385;51.572;6.578;2023-12-14T09:41:36;10.10;72.00
31677;DHT22;18385;51.572;6.578;2023-12-14T09:44:04;10.10;72.10
31677;DHT22;18385;51.572;6.578;2023-12-14T09:46:31;10.10;72.10
31677;DHT22;18385;51.572;6.578;2023-12-14T09:48:57;10.10;72.10
31677;DHT22;18385;51.572;6.578;2023-12-14T09:51:25;10.10;72.00
31677;DHT22;18385;51.572;6.578;2023-12-14T09:53:52;10.10;72.10
31677;DHT22;18385;51.572;6.578;2023-12-14T09:56:24;10.10;72.10
31677;DHT22;18385;51.572;6.578;2023-12-14T09:58:50;10.10;72.10
31677;DHT22;18385;51.572;6.578;2023-12-14T10:01:24;10.00;72.00
31677;DHT22;18385;51.572;6.578;2023-12-14T10:03:50;10.00;72.10
31677;DHT22;18385;51.572;6.578;2023-12-14T10:06:17;10.00;72.00
31677;DHT22;18385;51.572;6.578;2023-12-14T10:08:54;10.00;72.00
31677;DHT22;18385;51.572;6.578;2023-12-14T10:11:20;10.00;72.10
31677;DHT22;18385;51.572;6.578;2023-12-14T10:13:46;10.00;72.10
31677;DHT22;18385;51.572;6.578;2023-12-14T10:16:12;10.10;72.10
31677;DHT22;18385;51.572;6.578;2023-12-14T10:18:37;10.00;71.90
31677;DHT22;18385;51.572;6.578;2023-12-14T10:21:06;10.00;71.90
31677;DHT22;18385;51.572;6.578;2023-12-14T10:23:33;10.00;71.80
31677;DHT22;18385;51.572;6.578;2023-12-14T10:26:00;10.00;71.80
31677;DHT22;18385;51.572;6.578;2023-12-14T10:28:27;10.00;71.90
31677;DHT22;18385;51.572;6.578;2023-12-14T10:30:52;10.00;71.90
31677;DHT22;18385;51.572;6.578;2023-12-14T10:33:18;10.00;71.90
31677;DHT22;18385;51.572;6.578;2023-12-14T10:35:44;10.00;71.90
31677;DHT22;18385;51.572;6.578;2023-12-14T10:38:12;9.90;71.80
31677;DHT22;18385;51.572;6.578;2023-12-14T10:40:39;9.90;71.90
31677;DHT22;18385;51.572;6.578;2023-12-14T10:43:09;9.90;72.00
31677;DHT22;18385;51.572;6.578;2023-12-14T10:45:36;9.90;71.90
31677;DHT22;18385;51.572;6.578;2023-12-14T10:48:04;10.00;72.20
31677;DHT22;18385;51.572;6.578;2023-12-14T10:50:31;10.00;72.70
31677;DHT22;18385;51.572;6.578;2023-12-14T10:52:58;10.00;71.90
31677;DHT22;18385;51.572;6.578;2023-12-14T10:55:25;10.00;71.80
31677;DHT22;18385;51.572;6.578;2023-12-14T10:57:52;10.10;72.00
31677;DHT22;18385;51.572;6.578;2023-12-14T11:00:18;10.10;72.00
31677;DHT22;18385;51.572;6.578;2023-12-14T11:02:48;10.10;71.90
31677;DHT22;18385;51.572;6.578;2023-12-14T11:05:15;10.10;71.70
31677;DHT22;18385;51.572;6.578;2023-12-14T11:07:50;10.10;71.60
31677;DHT22;18385;51.572;6.578;2023-12-14T11:10:26;10.00;71.70
31677;DHT22;18385;51.572;6.578;2023-12-14T11:13:01;10.00;71.80
31677;DHT22;18385;51.572;6.578;2023-12-14T11:15:37;10.00;71.70
31677;DHT22;18385;51.572;6.578;2023-12-14T11:23:11;10.10;71.70
31677;DHT22;18385;51.572;6.578;2023-12-14T11:25:40;10.10;71.60
31677;DHT22;18385;51.572;6.578;2023-12-14T11:28:06;10.10;71.50
31677;DHT22;18385;51.572;6.578;2023-12-14T11:30:33;10.10;71.60
31677;DHT22;18385;51.572;6.578;2023-12-14T11:33:00;10.10;71.70
31677;DHT22;18385;51.572;6.578;2023-12-14T11:35:26;10.10;71.70
31677;DHT22;18385;51.572;6.578;2023-12-14T11:37:51;10.10;71.70
31677;DHT22;18385;51.572;6.578;2023-12-14T11:40:18;10.10;71.50
31677;DHT22;18385;51.572;6.578;2023-12-14T11:43:04;10.00;71.70
31677;DHT22;18385;51.572;6.578;2023-12-14T11:45:34;10.10;71.80
31677;DHT22;18385;51.572;6.578;2023-12-14T11:48:00;10.00;71.70
31677;DHT22;18385;51.572;6.578;2023-12-14T11:50:30;10.00;71.80
31677;DHT22;18385;51.572;6.578;2023-12-14T11:52:56;10.10;71.80
31677;DHT22;18385;51.572;6.578;2023-12-14T11:55:21;10.00;71.50
31677;DHT22;18385;51.572;6.578;2023-12-14T11:57:48;10.00;71.60
31677;DHT22;18385;51.572;6.578;2023-12-14T12:00:14;10.10;71.90
31677;DHT22;18385;51.572;6.578;2023-12-14T12:02:40;10.20;71.80
31677;DHT22;18385;51.572;6.578;2023-12-14T12:05:06;10.20;71.60
31677;DHT22;18385;51.572;6.578;2023-12-14T12:07:32;10.20;71.60
31677;DHT22;18385;51.572;6.578;2023-12-14T12:09:59;10.30;71.60
31677;DHT22;18385;51.572;6.578;2023-12-14T12:12:25;10.30;71.40
31677;DHT22;18385;51.572;6.578;2023-12-14T12:14:50;10.20;71.40
31677;DHT22;18385;51.572;6.578;2023-12-14T12:17:19;10.20;71.60
31677;DHT22;18385;51.572;6.578;2023-12-14T12:19:45;10.20;71.60
31677;DHT22;18385;51.572;6.578;2023-12-14T12:22:11;10.20;71.60
31677;DHT22;18385;51.572;6.578;2023-12-14T12:24:37;10.20;71.60
31677;DHT22;18385;51.572;6.578;2023-12-14T12:27:03;10.20;71.50
31677;DHT22;18385;51.572;6.578;2023-12-14T12:29:30;10.20;71.50
31677;DHT22;18385;51.572;6.578;2023-12-14T12:31:56;10.20;71.40
31677;DHT22;18385;51.572;6.578;2023-12-14T12:34:21;10.10;71.30
31677;DHT22;18385;51.572;6.578;2023-12-14T12:36:47;10.10;71.40
31677;DHT22;18385;51.572;6.578;2023-12-14T12:39:13;10.10;71.50
31677;DHT22;18385;51.572;6.578;2023-12-14T12:41:39;10.00;71.50
31677;DHT22;18385;51.572;6.578;2023-12-14T12:44:05;10.00;71.60
31677;DHT22;18385;51.572;6.578;2023-12-14T12:46:35;10.00;71.60
31677;DHT22;18385;51.572;6.578;2023-12-14T12:49:02;10.00;71.60
31677;DHT22;18385;51.572;6.578;2023-12-14T12:51:28;9.90;71.50
31677;DHT22;18385;51.572;6.578;2023-12-14T12:53:55;9.80;71.40
31677;DHT22;18385;51.572;6.578;2023-12-14T12:56:23;9.80;71.60
31677;DHT22;18385;51.572;6.578;2023-12-14T12:58:49;9.80;71.70
31677;DHT22;18385;51.572;6.578;2023-12-14T13:01:17;9.80;71.60
31677;DHT22;18385;51.572;6.578;2023-12-14T13:03:43;9.90;71.60
31677;DHT22;18385;51.572;6.578;2023-12-14T13:06:09;9.90;71.60
31677;DHT22;18385;51.572;6.578;2023-12-14T13:08:34;9.90;71.50
31677;DHT22;18385;51.572;6.578;2023-12-14T13:11:00;10.00;71.40
31677;DHT22;18385;51.572;6.578;2023-12-14T13:13:26;10.00;71.40
31677;DHT22;18385;51.572;6.578;2023-12-14T13:15:52;9.90;71.20
31677;DHT22;18385;51.572;6.578;2023-12-14T13:18:18;9.90;71.30
31677;DHT22;18385;51.572;6.578;2023-12-14T13:20:43;10.00;71.40
31677;DHT22;18385;51.572;6.578;2023-12-14T13:23:09;10.00;71.40
31677;DHT22;18385;51.572;6.578;2023-12-14T13:25:35;10.00;71.20
31677;DHT22;18385;51.572;6.578;2023-12-14T13:28:00;10.00;71.20
31677;DHT22;18385;51.572;6.578;2023-12-14T13:30:26;9.90;71.20
31677;DHT22;18385;51.572;6.578;2023-12-14T13:32:52;9.90;72.00
31677;DHT22;18385;51.572;6.578;2023-12-14T13:35:19;10.00;71.20
31677;DHT22;18385;51.572;6.578;2023-12-14T13:37:45;10.00;71.10
31677;DHT22;18385;51.572;6.578;2023-12-14T13:40:12;10.00;71.20
31677;DHT22;18385;51.572;6.578;2023-12-14T13:42:38;10.00;71.10
31677;DHT22;18385;51.572;6.578;2023-12-14T13:45:04;10.00;71.10
31677;DHT22;18385;51.572;6.578;2023-12-14T13:47:30;10.00;71.00
31677;DHT22;18385;51.572;6.578;2023-12-14T13:49:56;10.00;71.00
31677;DHT22;18385;51.572;6.578;2023-12-14T13:52:22;10.00;71.00
31677;DHT22;18385;51.572;6.578;2023-12-14T13:54:47;10.00;70.90
31677;DHT22;18385;51.572;6.578;2023-12-14T13:57:13;10.00;71.10
31677;DHT22;18385;51.572;6.578;2023-12-14T13:59:38;10.00;71.10
31677;DHT22;18385;51.572;6.578;2023-12-14T14:02:04;10.00;71.10
31677;DHT22;18385;51.572;6.578;2023-12-14T14:04:30;10.10;70.90
31677;DHT22;18385;51.572;6.578;2023-12-14T14:06:56;10.10;70.70
31677;DHT22;18385;51.572;6.578;2023-12-14T14:09:22;10.00;70.80
31677;DHT22;18385;51.572;6.578;2023-12-14T14:11:48;10.00;70.80
31677;DHT22;18385;51.572;6.578;2023-12-14T14:14:16;10.00;70.80
31677;DHT22;18385;51.572;6.578;2023-12-14T14:16:41;10.00;70.80
31677;DHT22;18385;51.572;6.578;2023-12-14T14:19:07;9.90;70.70
31677;DHT22;18385;51.572;6.578;2023-12-14T14:21:33;9.90;70.70
31677;DHT22;18385;51.572;6.578;2023-12-14T14:23:58;9.90;70.80
31677;DHT22;18385;51.572;6.578;2023-12-14T14:26:24;10.00;71.70
31677;DHT22;18385;51.572;6.578;2023-12-14T14:28:49;10.00;70.70
31677;DHT22;18385;51.572;6.578;2023-12-14T14:31:15;10.00;70.70
31677;DHT22;18385;51.572;6.578;2023-12-14T14:33:41;10.00;70.70
31677;DHT22;18385;51.572;6.578;2023-12-14T14:36:07;10.00;70.70
31677;DHT22;18385;51.572;6.578;2023-12-14T14:38:33;10.00;70.60
31677;DHT22;18385;51.572;6.578;2023-12-14T14:40:59;10.10;70.60
31677;DHT22;18385;51.572;6.578;2023-12-14T14:43:25;10.10;70.50
31677;DHT22;18385;51.572;6.578;2023-12-14T14:45:50;10.10;70.50
31677;DHT22;18385;51.572;6.578;2023-12-14T14:48:16;10.10;70.40
31677;DHT22;18385;51.572;6.578;2023-12-14T14:50:43;10.10;70.50
31677;DHT22;18385;51.572;6.578;2023-12-14T14:53:10;10.20;70.60
31677;DHT22;18385;51.572;6.578;2023-12-14T14:55:38;10.20;70.50
31677;DHT22;18385;51.572;6.578;2023-12-14T14:58:03;10.20;70.40
31677;DHT22;18385;51.572;6.578;2023-12-14T15:00:29;10.20;70.40
31677;DHT22;18385;51.572;6.578;2023-12-14T15:02:56;10.20;70.30
31677;DHT22;18385;51.572;6.578;2023-12-14T15:05:22;10.20;70.20
31677;DHT22;18385;51.572;6.578;2023-12-14T15:07:48;10.20;70.20
31677;DHT22;18385;51.572;6.578;2023-12-14T15:10:13;10.20;70.30
31677;DHT22;18385;51.572;6.578;2023-12-14T15:12:39;10.20;70.30
31677;DHT22;18385;51.572;6.578;2023-12-14T15:15:05;10.20;70.20
31677;DHT22;18385;51.572;6.578;2023-12-14T15:17:31;10.20;70.20
31677;DHT22;18385;51.572;6.578;2023-12-14T15:19:56;10.20;70.10
31677;DHT22;18385;51.572;6.578;2023-12-14T15:22:22;10.20;70.00
31677;DHT22;18385;51.572;6.578;2023-12-14T15:24:47;10.20;69.90
31677;DHT22;18385;51.572;6.578;2023-12-14T15:27:14;10.20;69.90
31677;DHT22;18385;51.572;6.578;2023-12-14T15:29:41;10.20;69.90
31677;DHT22;18385;51.572;6.578;2023-12-14T15:32:06;10.10;70.00